VHHH METAR and TAF | Updated Today

VHHH METAR

Hong Kong International Airport

Observation time: 27 min. ago

VHHH 060830Z 22006KT 150V290 CAVOK 23/07 Q1018 NOSIG

Need help? Read our tutorial on how to read METARs or read the parsed version below.

Hong Kong International Airport (VHHH) METAR

  • Weather conditions on Mon, 06 Dec 2021 08:30:00 +0000 (27 min. ago):
  • Present conditions: Dry
  • Clouds: Clear skies
  • Visibility: Greater than 10 km
  • Wind: 220 degrees at 6 knots
  • Temperature: 23 celsius
  • Dew point: 7 celsius
  • Pressure: 1018 millibars
  • Remarks: None


Useful to know...

VHHH TAF

Hong Kong International Airport

TAF VHHH 060500Z 0606/0712 33010KT CAVOK TX23/0606Z TX23/0706Z TN17/0622Z BECMG 0610/0612 10010KT BECMG 0616/0618 04010KT BECMG 0703/0705 30010KT
Observation time: 3:57 hr. ago
Need help? Read our tutorial on how to read TAFs or read the parsed version below.

Parsed version of TAF for Hong Kong International Airport (VHHH)

  • From 06 December at 06:00 UTC, to day 07 of the month at 12:00 UTC
  • Visibility: Greater than 10 km
  • Wind: 330 degrees at 10
  • Expected to arise soon, from 06 December at 10:00 UTC, to day 06 of the month at 12:00 UTC
  • Wind: 100 degrees at 10
  • Expected to arise soon, from 06 December at 16:00 UTC, to day 06 of the month at 18:00 UTC
  • Wind: 40 degrees at 10
  • Expected to arise soon, from 07 December at 03:00 UTC, to day 07 of the month at 05:00 UTC
  • Wind: 300 degrees at 10